createdAt,value
2022-08-25T00:01:22.495Z,95531.50
2022-08-25T00:03:54.042Z,95531.00
2022-08-25T00:06:22.182Z,95538.75
2022-08-25T00:08:50.684Z,95539.00
2022-08-25T00:11:22.182Z,95537.75
2022-08-25T00:13:52.123Z,95539.09
2022-08-25T00:16:22.156Z,95547.19
2022-08-25T00:18:54.075Z,95541.38
2022-08-25T00:21:22.636Z,95539.38
2022-08-25T00:23:50.323Z,95537.66
2022-08-25T00:26:18.803Z,95541.38
2022-08-25T00:28:46.723Z,95540.84
2022-08-25T00:31:16.223Z,95541.69
2022-08-25T00:33:44.077Z,95535.00
2022-08-25T00:36:12.730Z,95539.94
2022-08-25T00:38:40.423Z,95537.28
2022-08-25T00:41:08.970Z,95530.66
2022-08-25T00:43:44.450Z,95540.81
2022-08-25T00:46:16.712Z,95547.81
2022-08-25T00:48:47.652Z,95546.50
2022-08-25T00:51:25.630Z,95547.63
2022-08-25T00:53:53.111Z,95554.38
2022-08-25T00:56:22.052Z,95565.09
2022-08-25T00:58:50.831Z,95565.09
2022-08-25T01:01:18.349Z,95568.34
2022-08-25T01:03:45.551Z,95576.41
2022-08-25T01:06:14.192Z,95571.53
2022-08-25T01:08:43.791Z,95580.03
2022-08-25T01:11:12.370Z,95574.16
2022-08-25T01:13:44.430Z,95579.50
2022-08-25T01:16:14.320Z,95580.91
2022-08-25T01:18:49.391Z,95589.41
2022-08-25T01:21:21.237Z,95587.00
2022-08-25T01:23:50.110Z,95587.53
2022-08-25T01:26:21.130Z,95585.72
2022-08-25T01:28:59.570Z,95580.91
2022-08-25T01:31:27.977Z,95577.41
2022-08-25T01:33:55.830Z,95568.63
2022-08-25T01:36:26.189Z,95562.28
2022-08-25T01:38:53.510Z,95561.22
2022-08-25T01:41:35.231Z,95557.22
2022-08-25T01:44:04.382Z,95552.69
2022-08-25T01:46:32.366Z,95550.19
2022-08-25T01:49:04.931Z,95552.59
2022-08-25T01:51:42.824Z,95561.06
2022-08-25T01:54:10.103Z,95570.41
2022-08-25T01:56:37.200Z,95571.25
2022-08-25T01:59:04.660Z,95566.13
2022-08-25T02:01:31.773Z,95565.09
2022-08-25T02:03:59.080Z,95567.25
2022-08-25T02:06:30.747Z,95576.59
2022-08-25T02:09:04.720Z,95581.72
2022-08-25T02:11:32.601Z,95576.91
2022-08-25T02:13:59.860Z,95568.75
2022-08-25T02:16:31.062Z,95565.03
2022-08-25T02:18:58.560Z,95561.53
2022-08-25T02:21:26.500Z,95563.91
2022-08-25T02:23:54.239Z,95564.22
2022-08-25T02:26:23.040Z,95564.22
2022-08-25T02:28:52.620Z,95564.22
2022-08-25T02:31:22.240Z,95559.41
2022-08-25T02:33:49.700Z,95561.03
2022-08-25T02:36:17.120Z,95559.38
2022-08-25T02:38:44.899Z,95554.91
2022-08-25T02:41:15.780Z,95554.66
2022-08-25T02:43:45.360Z,95560.28
2022-08-25T02:46:13.445Z,95564.00
2022-08-25T02:48:40.899Z,95569.34
2022-08-25T02:51:10.382Z,95571.22
2022-08-25T02:53:39.521Z,95571.03
2022-08-25T02:56:07.200Z,95558.81
2022-08-25T02:58:34.720Z,95564.16
2022-08-25T03:01:04.950Z,95556.66
2022-08-25T03:03:36.275Z,95550.56
2022-08-25T03:06:06.879Z,95552.16
2022-08-25T03:08:34.740Z,95549.25
2022-08-25T03:11:02.879Z,95552.97
2022-08-25T03:13:29.999Z,95555.41
2022-08-25T03:15:57.523Z,95555.13
2022-08-25T03:18:26.340Z,95554.91
2022-08-25T03:20:53.619Z,95541.31
2022-08-25T03:23:20.880Z,95537.06
2022-08-25T03:25:48.140Z,95525.34
2022-08-25T03:28:15.922Z,95529.59
2022-08-25T03:30:43.660Z,95530.16
2022-08-25T03:33:11.441Z,95531.22
2022-08-25T03:35:42.299Z,95533.63
2022-08-25T03:38:09.501Z,95532.03
2022-08-25T03:40:36.581Z,95532.59
2022-08-25T03:43:03.919Z,95530.22
2022-08-25T03:45:31.793Z,95535.56
2022-08-25T03:47:58.929Z,95525.13
2022-08-25T03:50:26.219Z,95523.03
2022-08-25T03:52:56.995Z,95518.50
2022-08-25T03:55:26.220Z,95528.97
2022-08-25T03:57:54.681Z,95535.63
2022-08-25T04:00:23.081Z,95532.16
2022-08-25T04:02:50.291Z,95531.63
2022-08-25T04:05:17.661Z,95533.19
2022-08-25T04:07:44.862Z,95540.69
2022-08-25T04:10:13.500Z,95541.78
2022-08-25T04:12:40.839Z,95538.53
2022-08-25T04:15:10.382Z,95540.72
2022-08-25T04:17:39.820Z,95534.63
2022-08-25T04:20:09.739Z,95536.97
2022-08-25T04:22:38.320Z,95540.50
2022-08-25T04:25:07.360Z,95537.81
2022-08-25T04:27:36.940Z,95534.88
2022-08-25T04:30:06.319Z,95528.22
2022-08-25T04:32:35.500Z,95530.06
2022-08-25T04:35:02.865Z,95539.69
2022-08-25T04:37:30.073Z,95544.50
2022-08-25T04:39:57.315Z,95540.50
2022-08-25T04:42:24.675Z,95535.16
2022-08-25T04:44:53.328Z,95535.44
2022-08-25T04:47:20.538Z,95535.91
2022-08-25T04:49:47.693Z,95535.16
2022-08-25T04:52:14.873Z,95534.34
2022-08-25T04:54:42.701Z,95533.25
2022-08-25T04:57:10.120Z,95533.53
2022-08-25T04:59:37.300Z,95534.34
2022-08-25T05:02:06.422Z,95533.56
2022-08-25T05:04:36.324Z,95532.75
2022-08-25T05:07:05.601Z,95522.91
2022-08-25T05:09:33.361Z,95527.72
2022-08-25T05:12:02.223Z,95530.63
2022-08-25T05:14:30.555Z,95528.50
2022-08-25T05:16:58.069Z,95531.69
2022-08-25T05:19:27.373Z,95530.59
2022-08-25T05:21:54.756Z,95536.78
2022-08-25T05:24:26.485Z,95543.94
2022-08-25T05:26:53.686Z,95534.63
2022-08-25T05:29:20.846Z,95542.28
2022-08-25T05:31:50.565Z,95542.84
2022-08-25T05:34:19.149Z,95537.44
2022-08-25T05:36:48.806Z,95548.13
2022-08-25T05:39:16.486Z,95547.00
2022-08-25T05:41:43.726Z,95538.41
2022-08-25T05:44:11.805Z,95547.16
2022-08-25T05:46:38.905Z,95541.00
2022-08-25T05:49:06.026Z,95543.09
2022-08-25T05:51:33.305Z,95548.72
2022-08-25T05:54:01.846Z,95545.22
2022-08-25T05:56:29.026Z,95550.03
2022-08-25T05:58:56.130Z,95535.28
2022-08-25T06:01:26.102Z,95543.50
2022-08-25T06:03:53.410Z,95540.00
2022-08-25T06:06:21.525Z,95541.25
2022-08-25T06:08:48.747Z,95542.75
2022-08-25T06:11:17.786Z,95541.25
2022-08-25T06:13:44.867Z,95545.53
2022-08-25T06:16:12.079Z,95542.22
2022-08-25T06:18:39.508Z,95546.06
2022-08-25T06:21:12.347Z,95543.28
2022-08-25T06:23:41.147Z,95546.28
2022-08-25T06:26:11.231Z,95546.56
2022-08-25T06:28:47.747Z,95541.81
2022-08-25T06:31:15.108Z,95545.56
2022-08-25T06:33:42.307Z,95540.47
2022-08-25T06:36:09.528Z,95540.72
2022-08-25T06:38:37.282Z,95533.94
2022-08-25T06:41:05.673Z,95539.78
2022-08-25T06:43:34.023Z,95531.72
2022-08-25T06:46:11.362Z,95530.09
2022-08-25T06:48:38.501Z,95527.25
2022-08-25T06:51:07.701Z,95529.53
2022-08-25T06:53:38.562Z,95531.91
2022-08-25T06:56:06.915Z,95543.88
2022-08-25T06:58:34.487Z,95541.38
2022-08-25T07:01:15.805Z,95539.47
2022-08-25T07:03:48.270Z,95543.56
2022-08-25T07:06:18.450Z,95546.34
2022-08-25T07:08:47.120Z,95551.44
2022-08-25T07:11:16.587Z,95545.06
2022-08-25T07:13:45.716Z,95547.34
2022-08-25T07:16:15.178Z,95547.00
2022-08-25T07:18:42.383Z,95543.75
2022-08-25T07:21:12.283Z,95542.19
2022-08-25T07:23:40.339Z,95542.78
2022-08-25T07:28:58.507Z,95539.56
2022-08-25T07:31:29.874Z,95540.94
2022-08-25T07:33:57.271Z,95542.06
2022-08-25T07:36:24.693Z,95539.44
2022-08-25T07:38:52.192Z,95542.63
2022-08-25T07:41:19.381Z,95539.53
2022-08-25T07:43:46.622Z,95540.72
2022-08-25T07:46:13.964Z,95545.22
2022-08-25T07:48:42.653Z,95543.50
2022-08-25T07:51:20.381Z,95539.69
2022-08-25T07:53:47.756Z,95539.22
2022-08-25T07:56:17.201Z,95553.81
2022-08-25T07:58:45.620Z,95555.41
2022-08-25T08:01:15.021Z,95554.59
2022-08-25T08:03:50.953Z,95548.56
2022-08-25T08:06:20.828Z,95554.91
2022-08-25T08:08:49.704Z,95554.13
2022-08-25T08:11:18.402Z,95547.81
2022-08-25T08:13:47.801Z,95550.50
2022-08-25T08:16:19.747Z,95554.00
2022-08-25T08:18:48.787Z,95553.00
2022-08-25T08:21:19.911Z,95548.91
2022-08-25T08:23:47.767Z,95555.72
2022-08-25T08:26:15.289Z,95558.88
2022-08-25T08:28:43.588Z,95561.06
2022-08-25T08:31:10.925Z,95558.41
2022-08-25T08:33:41.003Z,95557.13
2022-08-25T08:36:11.906Z,95554.66
2022-08-25T08:38:41.435Z,95558.31
2022-08-25T08:41:26.667Z,95553.94
2022-08-25T08:46:49.359Z,95550.03
2022-08-25T08:49:28.041Z,95548.06
2022-08-25T08:52:01.947Z,95553.31
2022-08-25T08:54:36.261Z,95549.94
2022-08-25T08:57:10.491Z,95545.19
2022-08-25T08:59:49.309Z,95548.63
2022-08-25T09:02:38.934Z,95544.84
2022-08-25T09:05:17.465Z,95539.81
2022-08-25T09:07:54.761Z,95540.41
2022-08-25T09:10:24.648Z,95540.97
2022-08-25T09:13:03.079Z,95540.31
2022-08-25T09:15:45.043Z,95541.88
2022-08-25T09:18:23.718Z,95533.91
2022-08-25T09:21:09.137Z,95536.28
2022-08-25T09:23:56.458Z,95533.16
2022-08-25T09:26:37.137Z,95533.00
2022-08-25T09:29:16.389Z,95535.19
2022-08-25T09:31:45.580Z,95528.28
2022-08-25T09:34:16.967Z,95537.94
2022-08-25T09:36:44.308Z,95538.38
2022-08-25T09:39:12.927Z,95540.59
2022-08-25T09:41:46.327Z,95535.88
2022-08-25T09:44:26.239Z,95534.44
2022-08-25T09:47:01.316Z,95534.63
2022-08-25T09:49:36.895Z,95530.38
2022-08-25T09:52:22.512Z,95528.09
2022-08-25T09:54:53.232Z,95519.56
2022-08-25T09:57:33.493Z,95532.88
2022-08-25T10:00:15.936Z,95525.75
2022-08-25T10:02:44.642Z,95523.34
2022-08-25T10:05:23.666Z,95520.22
2022-08-25T10:07:55.726Z,95520.22
2022-08-25T10:10:32.388Z,95518.50
2022-08-25T10:13:00.561Z,95514.03
2022-08-25T10:15:32.016Z,95512.63
2022-08-25T10:18:21.832Z,95501.22
2022-08-25T10:21:10.429Z,95508.25
2022-08-25T10:23:41.932Z,95500.47
2022-08-25T10:26:34.626Z,95496.72
2022-08-25T10:29:21.415Z,95493.41
2022-08-25T10:31:58.211Z,95495.25
2022-08-25T10:34:44.407Z,95487.19
2022-08-25T10:37:24.205Z,95480.53
2022-08-25T10:40:07.542Z,95484.63
2022-08-25T10:42:52.607Z,95486.25
2022-08-25T10:45:23.645Z,95489.28
2022-08-25T10:48:18.966Z,95477.81
2022-08-25T10:50:53.707Z,95478.59
2022-08-25T10:53:28.270Z,95469.91
2022-08-25T10:56:07.301Z,95464.66
2022-08-25T10:59:10.567Z,95460.69
2022-08-25T11:02:17.930Z,95457.50
2022-08-25T11:04:55.900Z,95451.25
2022-08-25T11:07:29.525Z,95449.47
2022-08-25T11:10:03.575Z,95452.50
2022-08-25T11:12:34.326Z,95450.06
2022-08-25T11:15:10.845Z,95448.88
2022-08-25T11:17:50.362Z,95445.97
2022-08-25T11:20:26.845Z,95444.00
2022-08-25T11:23:11.785Z,95449.78
2022-08-25T11:25:43.927Z,95425.91
2022-08-25T11:28:16.587Z,95436.06
2022-08-25T11:30:46.530Z,95433.75
2022-08-25T11:33:16.806Z,95430.56
2022-08-25T11:35:52.805Z,95426.75
2022-08-25T11:38:36.507Z,95414.78
2022-08-25T11:41:19.369Z,95416.91
2022-08-25T11:44:26.747Z,95408.75
2022-08-25T11:47:27.226Z,95419.69
2022-08-25T11:50:02.270Z,95404.84
2022-08-25T11:52:53.779Z,95409.25
2022-08-25T11:55:26.829Z,95413.38
2022-08-25T11:58:30.687Z,95410.28
2022-08-25T12:00:59.755Z,95413.69
2022-08-25T12:03:50.804Z,95411.44
2022-08-25T12:06:29.907Z,95409.22
2022-08-25T12:09:27.249Z,95411.63
2022-08-25T12:11:58.244Z,95414.34
2022-08-25T12:14:43.866Z,95412.31
2022-08-25T12:17:25.806Z,95415.13
2022-08-25T12:20:00.312Z,95412.16
2022-08-25T12:22:43.464Z,95408.88
2022-08-25T12:25:43.574Z,95410.59
2022-08-25T12:28:35.004Z,95404.69
2022-08-25T12:31:16.110Z,95406.28
2022-08-25T12:34:02.745Z,95406.34
2022-08-25T12:36:34.689Z,95400.69
2022-08-25T12:39:19.006Z,95392.84
2022-08-25T12:42:05.007Z,95399.31
2022-08-25T12:44:42.426Z,95392.13
2022-08-25T12:47:28.663Z,95385.25
2022-08-25T12:50:40.544Z,95383.09
2022-08-25T12:53:14.458Z,95383.41
2022-08-25T12:55:49.824Z,95378.91
2022-08-25T12:58:17.146Z,95381.53
2022-08-25T13:01:17.430Z,95372.97
2022-08-25T13:04:22.707Z,95361.75
2022-08-25T13:07:16.426Z,95367.00
2022-08-25T13:10:16.127Z,95361.00
2022-08-25T13:12:51.950Z,95352.97
2022-08-25T13:15:35.325Z,95352.03
2022-08-25T13:18:22.866Z,95353.03
2022-08-25T13:20:54.984Z,95353.81
2022-08-25T13:23:29.126Z,95344.72
2022-08-25T13:25:58.557Z,95341.50
2022-08-25T13:28:30.403Z,95343.47
2022-08-25T13:31:01.745Z,95338.25
2022-08-25T13:33:29.603Z,95333.13
2022-08-25T13:35:59.833Z,95332.47
2022-08-25T13:38:27.274Z,95337.03
2022-08-25T13:41:08.244Z,95323.25
2022-08-25T13:43:37.955Z,95321.72
2022-08-25T13:46:06.371Z,95320.13
2022-08-25T13:48:36.385Z,95311.66
2022-08-25T13:51:31.274Z,95319.00
2022-08-25T13:54:02.166Z,95321.91
2022-08-25T13:56:38.787Z,95316.81
2022-08-25T13:59:26.824Z,95315.44
2022-08-25T14:01:55.559Z,95320.59
2022-08-25T14:04:32.088Z,95312.88
2022-08-25T14:07:14.727Z,95319.00
2022-08-25T14:09:49.364Z,95313.03
2022-08-25T14:12:35.395Z,95309.81
2022-08-25T14:15:08.746Z,95307.53
2022-08-25T14:17:40.010Z,95308.59
2022-08-25T14:20:21.726Z,95308.19
2022-08-25T14:22:54.712Z,95302.94
2022-08-25T14:25:22.025Z,95306.56
2022-08-25T14:28:13.816Z,95297.94
2022-08-25T14:30:46.006Z,95302.91
2022-08-25T14:33:16.045Z,95300.44
2022-08-25T14:35:47.577Z,95294.03
2022-08-25T14:38:16.003Z,95289.22
2022-08-25T14:40:45.103Z,95285.22
2022-08-25T14:43:14.289Z,95295.81
2022-08-25T14:45:45.310Z,95282.16
2022-08-25T14:48:24.164Z,95288.16
2022-08-25T14:50:51.783Z,95283.44
2022-08-25T14:53:19.249Z,95290.75
2022-08-25T14:55:46.384Z,95276.50
2022-08-25T14:58:15.063Z,95283.81
2022-08-25T15:00:45.105Z,95283.50
2022-08-25T15:03:31.858Z,95275.53
2022-08-25T15:06:00.669Z,95278.50
2022-08-25T15:08:32.915Z,95278.94
2022-08-25T15:11:00.766Z,95274.66
2022-08-25T15:13:29.363Z,95274.88
2022-08-25T15:15:58.791Z,95271.28
2022-08-25T15:18:27.384Z,95270.25
2022-08-25T15:20:54.510Z,95266.34
2022-08-25T15:23:21.986Z,95260.75
2022-08-25T15:25:52.954Z,95260.59
2022-08-25T15:28:22.467Z,95260.28
2022-08-25T15:30:51.387Z,95257.06
2022-08-25T15:33:18.587Z,95256.88
2022-08-25T15:35:46.286Z,95257.66
2022-08-25T15:38:13.448Z,95258.78
2022-08-25T15:40:40.926Z,95249.63
2022-08-25T15:43:08.108Z,95256.94
2022-08-25T15:45:36.507Z,95256.50
2022-08-25T15:48:06.863Z,95257.56
2022-08-25T15:50:38.616Z,95256.28
2022-08-25T15:53:08.362Z,95251.31
2022-08-25T15:55:39.374Z,95256.28
2022-08-25T15:58:07.006Z,95249.06
2022-08-25T16:00:37.984Z,95235.78
2022-08-25T16:03:08.086Z,95239.28
2022-08-25T16:05:36.726Z,95247.97
2022-08-25T16:08:05.178Z,95241.84
2022-08-25T16:10:35.045Z,95242.16
2022-08-25T16:13:04.975Z,95242.56
2022-08-25T16:15:33.647Z,95239.63
2022-08-25T16:18:02.087Z,95242.16
2022-08-25T16:20:35.586Z,95244.63
2022-08-25T16:23:02.858Z,95239.69
2022-08-25T16:25:31.809Z,95241.81
2022-08-25T16:27:59.028Z,95235.81
2022-08-25T16:30:26.326Z,95235.16
2022-08-25T16:32:54.266Z,95232.91
2022-08-25T16:35:21.446Z,95233.81
2022-08-25T16:37:50.486Z,95226.84
2022-08-25T16:40:18.531Z,95218.91
2022-08-25T16:42:45.757Z,95226.56
2022-08-25T16:45:13.146Z,95218.91
2022-08-25T16:47:42.545Z,95224.78
2022-08-25T16:50:11.103Z,95217.00
2022-08-25T16:52:38.425Z,95222.09
2022-08-25T16:55:10.007Z,95217.34
2022-08-25T16:57:37.666Z,95213.84
2022-08-25T17:00:07.207Z,95219.72
2022-08-25T17:02:34.456Z,95219.84
2022-08-25T17:05:02.171Z,95225.81
2022-08-25T17:07:29.425Z,95218.91
2022-08-25T17:09:59.415Z,95217.34
2022-08-25T17:12:28.366Z,95219.59
2022-08-25T17:14:55.586Z,95215.66
2022-08-25T17:17:22.743Z,95211.69
2022-08-25T17:19:54.874Z,95219.03
2022-08-25T17:22:22.170Z,95211.56
2022-08-25T17:24:59.425Z,95215.53
2022-08-25T17:27:29.926Z,95216.31
2022-08-25T17:29:58.046Z,95214.72
2022-08-25T17:32:28.973Z,95210.13
2022-08-25T17:34:59.064Z,95210.47
2022-08-25T17:37:26.406Z,95214.28
2022-08-25T17:39:56.703Z,95208.75
2022-08-25T17:42:32.030Z,95212.75
2022-08-25T17:44:59.137Z,95212.63
2022-08-25T17:47:27.571Z,95213.28
2022-08-25T17:49:54.747Z,95216.66
2022-08-25T17:52:25.046Z,95213.03
2022-08-25T17:54:53.026Z,95214.50
2022-08-25T17:57:21.485Z,95210.75
2022-08-25T17:59:50.024Z,95219.66
2022-08-25T18:02:17.123Z,95218.59
2022-08-25T18:04:44.323Z,95214.84
2022-08-25T18:07:11.465Z,95218.66
2022-08-25T18:09:38.824Z,95215.69
2022-08-25T18:12:06.345Z,95218.88
2022-08-25T18:14:33.463Z,95211.00
2022-08-25T18:17:01.964Z,95222.63
2022-08-25T18:19:30.023Z,95218.69
2022-08-25T18:21:57.163Z,95224.78
2022-08-25T18:24:25.009Z,95221.84
2022-08-25T18:26:54.725Z,95221.38
2022-08-25T18:29:22.083Z,95225.16
2022-08-25T18:31:51.119Z,95236.47
2022-08-25T18:34:20.845Z,95236.63
2022-08-25T18:36:47.992Z,95237.59
2022-08-25T18:39:15.363Z,95247.16
2022-08-25T18:41:45.074Z,95253.53
2022-08-25T18:44:12.504Z,95249.91
2022-08-25T18:46:43.559Z,95262.63
2022-08-25T18:49:15.687Z,95264.69
2022-08-25T18:51:45.205Z,95262.66
2022-08-25T18:54:22.370Z,95270.59
2022-08-25T18:56:51.403Z,95276.78
2022-08-25T18:59:19.166Z,95278.53
2022-08-25T19:01:46.703Z,95281.75
2022-08-25T19:04:15.017Z,95284.25
2022-08-25T19:06:43.665Z,95286.94
2022-08-25T19:09:12.531Z,95284.72
2022-08-25T19:11:39.603Z,95288.41
2022-08-25T19:14:12.300Z,95289.03
2022-08-25T19:16:43.628Z,95291.56
2022-08-25T19:19:13.526Z,95292.66
2022-08-25T19:21:42.284Z,95290.00
2022-08-25T19:24:13.824Z,95290.16
2022-08-25T19:26:41.416Z,95290.16
2022-08-25T19:29:14.204Z,95296.34
2022-08-25T19:31:44.342Z,95295.53
2022-08-25T19:34:15.403Z,95297.44
2022-08-25T19:36:42.905Z,95295.41
2022-08-25T19:39:14.704Z,95299.03
2022-08-25T19:41:45.072Z,95294.75
2022-08-25T19:44:12.452Z,95299.66
2022-08-25T19:46:42.930Z,95290.47
2022-08-25T19:49:13.225Z,95295.06
2022-08-25T19:51:43.937Z,95298.91
2022-08-25T19:54:16.044Z,95297.63
2022-08-25T19:56:54.244Z,95294.78
2022-08-25T19:59:23.144Z,95303.66
2022-08-25T20:01:50.412Z,95297.94
2022-08-25T20:04:17.744Z,95304.59
2022-08-25T20:06:48.336Z,95303.16
2022-08-25T20:09:20.859Z,95301.41
2022-08-25T20:12:04.782Z,95307.00
2022-08-25T20:14:34.184Z,95305.06
2022-08-25T20:17:02.332Z,95309.03
2022-08-25T20:19:30.024Z,95311.72
2022-08-25T20:21:57.433Z,95316.50
2022-08-25T20:24:26.845Z,95323.31
2022-08-25T20:26:55.586Z,95324.41
2022-08-25T20:29:22.883Z,95330.16
2022-08-25T20:31:50.045Z,95337.09
2022-08-25T20:34:17.165Z,95337.09
2022-08-25T20:36:50.364Z,95348.00
2022-08-25T20:39:19.471Z,95344.69
2022-08-25T20:41:48.763Z,95336.25
2022-08-25T20:44:16.086Z,95337.69
2022-08-25T20:46:45.094Z,95341.47
2022-08-25T20:49:12.572Z,95351.78
2022-08-25T20:51:39.953Z,95346.06
2022-08-25T20:54:07.384Z,95354.47
2022-08-25T20:56:34.547Z,95354.63
2022-08-25T20:59:03.135Z,95356.22
2022-08-25T21:01:31.101Z,95355.91
2022-08-25T21:04:01.210Z,95356.38
2022-08-25T21:06:35.024Z,95349.25
2022-08-25T21:09:04.731Z,95356.25
2022-08-25T21:11:31.864Z,95345.13
2022-08-25T21:13:58.985Z,95342.75
2022-08-25T21:16:28.301Z,95349.56
2022-08-25T21:18:55.884Z,95353.34
2022-08-25T21:21:23.831Z,95359.31
2022-08-25T21:23:53.243Z,95353.44
2022-08-25T21:26:24.163Z,95359.50
2022-08-25T21:28:53.684Z,95356.31
2022-08-25T21:31:21.705Z,95355.88
2022-08-25T21:33:52.864Z,95354.09
2022-08-25T21:36:21.283Z,95359.31
2022-08-25T21:38:48.884Z,95359.50
2022-08-25T21:41:18.999Z,95355.16
2022-08-25T21:43:46.403Z,95366.72
2022-08-25T21:46:18.131Z,95362.59
2022-08-25T21:48:46.475Z,95365.88
2022-08-25T21:51:18.084Z,95364.91
2022-08-25T21:53:46.725Z,95364.28
2022-08-25T21:56:18.305Z,95362.63
2022-08-25T21:58:49.117Z,95356.09
2022-08-25T22:01:19.963Z,95354.53
2022-08-25T22:03:47.645Z,95359.44
2022-08-25T22:06:17.103Z,95358.00
2022-08-25T22:08:44.284Z,95345.34
2022-08-25T22:11:14.991Z,95351.38
2022-08-25T22:13:43.279Z,95358.97
2022-08-25T22:16:11.221Z,95352.00
2022-08-25T22:18:40.343Z,95353.09
2022-08-25T22:21:09.463Z,95348.53
2022-08-25T22:23:44.055Z,95347.59
2022-08-25T22:26:13.146Z,95350.72
2022-08-25T22:28:43.240Z,95352.66
2022-08-25T22:31:20.669Z,95355.50
2022-08-25T22:33:49.128Z,95349.06
2022-08-25T22:36:19.343Z,95352.81
2022-08-25T22:38:49.244Z,95341.94
2022-08-25T22:41:21.589Z,95347.16
2022-08-25T22:43:50.207Z,95350.41
2022-08-25T22:46:20.120Z,95343.47
2022-08-25T22:48:47.304Z,95339.00
2022-08-25T22:51:21.782Z,95346.06
2022-08-25T22:53:51.441Z,95353.16
2022-08-25T22:56:25.582Z,95344.59
2022-08-25T22:58:53.327Z,95341.75
2022-08-25T23:01:20.523Z,95342.81
2022-08-25T23:03:48.424Z,95337.88
2022-08-25T23:06:24.509Z,95342.09
2022-08-25T23:08:55.046Z,95346.59
2022-08-25T23:11:24.322Z,95339.88
2022-08-25T23:13:54.427Z,95346.13
2022-08-25T23:16:22.953Z,95336.16
2022-08-25T23:18:50.123Z,95339.31
2022-08-25T23:21:24.248Z,95340.94
2022-08-25T23:23:53.985Z,95337.63
2022-08-25T23:26:21.323Z,95336.38
2022-08-25T23:28:49.046Z,95336.84
2022-08-25T23:31:17.645Z,95336.84
2022-08-25T23:33:45.258Z,95339.03
2022-08-25T23:36:15.767Z,95341.84
2022-08-25T23:38:51.867Z,95333.03
2022-08-25T23:41:23.603Z,95336.63
2022-08-25T23:43:52.402Z,95341.09
2022-08-25T23:46:22.127Z,95336.19
2022-08-25T23:48:50.483Z,95337.91
2022-08-25T23:51:23.144Z,95333.03
2022-08-25T23:53:50.985Z,95337.41
2022-08-25T23:56:18.103Z,95338.22
2022-08-25T23:58:47.364Z,95332.53
